CheckWX is a tool to help pilots better visualize weather data.  It is not intended as a substitute for an official pre-flight weather briefing.

02:42:10 UTC

KDNV METAR
Vermilion Regional Airport
Danville, Illinois, USA
Current

7 mins ago

KDNV 180235Z AUTO 27004KT 4SM BR SCT005 OVC016 M02/M02 A2986 RMK AO2 T10171020
Observed
Feb-18 @ 02:35 UTC
Wind
  • 270° at 4 KTS
Visibility
4 SM
Flight Rules
MVFR
Conditions
Mist
Cloud Levels
  • Scattered at 500' AGL
  • Overcast at 1,600' AGL
Temperature
-2°C / 28°F
Dewpoint
-2°C / 28°F
Humidity
100%
Altimeter
29.86" Hg
Pressure
1011.22 hPa
Previous

27 mins ago

KDNV 180215Z AUTO 28004KT 4SM BR SCT005 BKN014 OVC035 M02/M02 A2985 RMK AO2 T10181020
Observed
Feb-18 @ 02:15 UTC
Wind
  • 280° at 4 KTS
Visibility
4 SM
Flight Rules
MVFR
Conditions
Mist
Cloud Levels
  • Scattered at 500' AGL
  • Broken at 1,400' AGL
  • Overcast at 3,500' AGL
Temperature
-2°C / 28°F
Dewpoint
-2°C / 28°F
Humidity
100%
Altimeter
29.85" Hg
Pressure
1010.82 hPa
Previous

47 mins ago

KDNV 180155Z AUTO 28004KT 4SM BR BKN005 BKN016 OVC035 M02/M02 A2984 RMK AO2 T10181020
Observed
Feb-18 @ 01:55 UTC
Wind
  • 280° at 4 KTS
Visibility
4 SM
Flight Rules
IFR
Conditions
Mist
Cloud Levels
  • Broken at 500' AGL
  • Broken at 1,600' AGL
  • Overcast at 3,500' AGL
Temperature
-2°C / 28°F
Dewpoint
-2°C / 28°F
Humidity
100%
Altimeter
29.84" Hg
Pressure
1010.52 hPa